Time;durP1;ratioP1;P1;durP2;ratioP2;P2;SDS_P1;SDS_P2;PMS_P1;PMS_P2;Temp;Humidity;BMP_temperature;BMP_pressure;BME280_temperature;BME280_humidity;BME280_pressure;Samples;Min_cycle;Max_cycle;Signal;HPM_P1;HPM_P2
2022/10/04 00:01:43;;;;;;;;;;;;;;;16.52;76.65;101273.41;5069570;28;1845;-70
2022/10/04 00:04:29;;;;;;;;;;;;;;;16.52;76.46;101267.88;5065870;28;1795;-70
2022/10/04 00:06:57;;;;;;;;;;;;;;;16.50;76.86;101248.84;5060571;28;2090;-70
2022/10/04 00:09:24;;;;;;;;;;;;;;;16.51;76.59;101261.53;5072106;28;1696;-71
2022/10/04 00:11:53;;;;;;;;;;;;;;;16.50;77.09;101259.91;5070961;28;1957;-71
2022/10/04 00:14:20;;;;;;;;;;;;;;;16.50;76.61;101256.34;5071868;28;1728;-70
2022/10/04 00:16:45;;;;;;;;;;;;;;;16.50;76.85;101257.13;5070833;28;1655;-70
2022/10/04 00:19:13;;;;;;;;;;;;;;;16.50;77.09;101264.63;5071951;28;1625;-71
2022/10/04 00:21:57;;;;;;;;;;;;;;;16.49;77.04;101254.69;5071693;28;1986;-70
2022/10/04 00:24:22;;;;;;;;;;;;;;;16.49;76.60;101257.47;5071234;28;1756;-69
2022/10/04 00:26:47;;;;;;;;;;;;;;;16.48;76.87;101264.94;5071840;28;1574;-71
2022/10/04 00:29:30;;;;;;;;;;;;;;;16.49;76.95;101249.16;5072906;28;1161;-71
2022/10/04 00:32:23;;;;;;;;;;;;;;;16.49;76.95;101240.88;5072324;28;1959;-71
2022/10/04 00:34:49;;;;;;;;;;;;;;;16.48;76.76;101233.72;5071849;28;1608;-70
2022/10/04 00:37:16;;;;;;;;;;;;;;;16.49;77.31;101243.63;5070191;28;1902;-70
2022/10/04 00:39:56;;;;;;;;;;;;;;;16.48;77.40;101234.53;5075035;28;1629;-71
2022/10/04 00:42:40;;;;;;;;;;;;;;;16.48;76.81;101231.75;5075658;28;1721;-71
2022/10/04 00:45:11;;;;;;;;;;;;;;;16.48;77.21;101236.47;5069495;28;1638;-71
2022/10/04 00:47:45;;;;;;;;;;;;;;;16.48;76.93;101239.22;5071377;28;1641;-70
2022/10/04 00:50:16;;;;;;;;;;;;;;;16.47;77.48;101232.06;5074592;28;2109;-70
2022/10/04 00:52:45;;;;;;;;;;;;;;;16.47;77.35;101227.34;5076273;28;1897;-71
2022/10/04 00:55:18;;;;;;;;;;;;;;;16.47;77.23;101219.06;5075279;28;1696;-70
2022/10/04 00:57:46;;;;;;;;;;;;;;;16.46;77.29;101214.66;5073975;28;1712;-71
2022/10/04 01:00:15;;;;;;;;;;;;;;;16.45;76.97;101207.50;5073816;28;1914;-70
2022/10/04 01:02:42;;;;;;;;;;;;;;;16.46;77.43;101208.31;5074942;28;1721;-70
2022/10/04 01:05:10;;;;;;;;;;;;;;;16.46;77.19;101213.84;5074359;28;1603;-70
2022/10/04 01:07:41;;;;;;;;;;;;;;;16.32;77.27;101197.22;5074455;28;1819;-70
2022/10/04 01:10:19;;;;;;;;;;;;;;;16.44;77.69;101211.38;5072825;28;1964;-72
2022/10/04 01:12:48;;;;;;;;;;;;;;;16.45;77.69;101215.78;5072108;28;1922;-70
2022/10/04 01:15:36;;;;;;;;;;;;;;;16.45;77.86;101210.25;5073108;28;1825;-70
2022/10/04 01:18:28;;;;;;;;;;;;;;;16.46;77.32;101211.06;5064906;28;1960;-71
2022/10/04 01:21:03;;;;;;;;;;;;;;;16.44;77.81;101211.38;5064975;28;2024;-71
2022/10/04 01:23:42;;;;;;;;;;;;;;;16.45;77.80;101209.44;5073800;28;1639;-71
2022/10/04 01:26:25;;;;;;;;;;;;;;;16.44;77.84;101205.84;5072740;28;1941;-71
2022/10/04 01:28:51;;;;;;;;;;;;;;;16.44;78.05;101203.06;5071880;28;1760;-70
2022/10/04 01:31:17;;;;;;;;;;;;;;;16.43;77.77;101198.66;5074216;28;1889;-71
2022/10/04 01:33:42;;;;;;;;;;;;;;;16.43;77.55;101198.66;5075083;28;1676;-71
2022/10/04 01:36:07;;;;;;;;;;;;;;;16.43;77.83;101192.31;5071483;28;1881;-70
2022/10/04 01:38:32;;;;;;;;;;;;;;;16.42;77.95;101193.44;5072315;28;1810;-71
2022/10/04 01:41:01;;;;;;;;;;;;;;;16.41;77.70;101195.41;5072953;28;1720;-70
2022/10/04 01:43:30;;;;;;;;;;;;;;;16.41;77.99;101178.84;5069040;28;2036;-71
2022/10/04 01:46:03;;;;;;;;;;;;;;;16.42;77.89;101174.09;5074406;28;1607;-71
2022/10/04 01:48:31;;;;;;;;;;;;;;;16.41;78.18;101176.06;5072764;28;1706;-71
2022/10/04 01:51:04;;;;;;;;;;;;;;;16.41;78.12;101183.53;5073075;28;1901;-71
2022/10/04 01:53:30;;;;;;;;;;;;;;;16.41;78.03;101183.53;5071907;28;1990;-71
2022/10/04 01:56:06;;;;;;;;;;;;;;;16.40;78.02;101185.47;5072563;28;1606;-71
2022/10/04 01:58:40;;;;;;;;;;;;;;;16.41;77.93;101180.78;5072907;28;1675;-71
2022/10/04 02:01:09;;;;;;;;;;;;;;;16.40;78.19;101181.91;5073893;28;1887;-71
2022/10/04 02:03:41;;;;;;;;;;;;;;;16.41;78.09;101180.78;5074064;28;1588;-71
2022/10/04 02:06:08;;;;;;;;;;;;;;;16.40;78.25;101176.38;5070525;28;1625;-70
2022/10/04 02:08:36;;;;;;;;;;;;;;;16.39;78.26;101166.44;5071799;28;1972;-71
2022/10/04 02:11:03;;;;;;;;;;;;;;;16.39;78.11;101166.44;5073968;28;1929;-71
2022/10/04 02:13:33;;;;;;;;;;;;;;;16.39;78.46;101178.31;5074194;28;1614;-71
2022/10/04 02:15:58;;;;;;;;;;;;;;;16.39;78.43;101174.72;5073641;28;1826;-71
2022/10/04 02:18:25;;;;;;;;;;;;;;;16.38;78.69;101171.13;5072737;28;1625;-72
2022/10/04 02:20:51;;;;;;;;;;;;;;;16.39;78.02;101166.44;5073706;28;1687;-71
2022/10/04 02:23:18;;;;;;;;;;;;;;;16.38;78.41;101153.75;5072328;28;1725;-71
2022/10/04 02:25:43;;;;;;;;;;;;;;;16.37;78.28;101152.91;5070854;28;1854;-70
2022/10/04 02:28:09;;;;;;;;;;;;;;;16.37;78.34;101149.34;5072047;28;1876;-71
2022/10/04 02:30:35;;;;;;;;;;;;;;;16.37;77.98;101154.84;5072490;28;1969;-70
2022/10/04 02:33:00;;;;;;;;;;;;;;;16.37;78.03;101154.84;5072844;28;1546;-70
2022/10/04 02:35:28;;;;;;;;;;;;;;;16.37;78.15;101152.09;5072740;28;1807;-71
2022/10/04 02:38:06;;;;;;;;;;;;;;;16.35;78.32;101148.81;5070028;28;1983;-71
2022/10/04 02:40:43;;;;;;;;;;;;;;;16.35;78.68;101157.91;5070248;28;1636;-71
2022/10/04 02:43:11;;;;;;;;;;;;;;;16.34;78.62;101156.28;5071929;28;1751;-70
2022/10/04 02:45:39;;;;;;;;;;;;;;;16.33;78.30;101151.91;5072640;28;1621;-71
2022/10/04 02:48:11;;;;;;;;;;;;;;;16.35;78.54;101148.81;5071442;28;1667;-70
2022/10/04 02:50:44;;;;;;;;;;;;;;;16.35;78.43;101143.28;5073595;28;1906;-71
2022/10/04 02:53:29;;;;;;;;;;;;;;;16.34;78.17;101152.69;5071397;28;1884;-70
2022/10/04 02:55:54;;;;;;;;;;;;;;;16.35;78.18;101148.81;5062699;28;1979;-71
2022/10/04 02:58:21;;;;;;;;;;;;;;;16.34;78.02;101158.22;5072357;28;1670;-68
2022/10/04 03:00:48;;;;;;;;;;;;;;;16.33;78.44;101149.13;5072632;28;1692;-68
2022/10/04 03:03:24;;;;;;;;;;;;;;;16.33;78.62;101145.56;5072139;28;1706;-68
2022/10/04 03:05:56;;;;;;;;;;;;;;;16.33;78.45;101140.03;5071063;28;1796;-68
2022/10/04 03:08:21;;;;;;;;;;;;;;;16.33;78.64;101142.78;5071246;28;2019;-68
2022/10/04 03:10:46;;;;;;;;;;;;;;;16.32;78.03;101130.09;5072748;28;1922;-68
2022/10/04 03:13:12;;;;;;;;;;;;;;;16.31;78.49;101126.50;5071474;28;1857;-69
2022/10/04 03:15:38;;;;;;;;;;;;;;;16.30;78.56;101127.63;5071142;28;1937;-68
2022/10/04 03:18:03;;;;;;;;;;;;;;;16.31;78.59;101131.22;5071254;28;1642;-68
2022/10/04 03:20:28;;;;;;;;;;;;;;;16.31;78.46;101128.44;5072211;28;1714;-69
2022/10/04 03:22:54;;;;;;;;;;;;;;;16.30;78.29;101126.81;5072114;28;1941;-69
2022/10/04 03:25:22;;;;;;;;;;;;;;;16.30;78.67;101127.63;5071007;28;1932;-69
2022/10/04 03:27:49;;;;;;;;;;;;;;;16.31;78.63;101128.44;5070605;28;2026;-69
2022/10/04 03:30:15;;;;;;;;;;;;;;;16.31;78.83;101121.00;5063379;28;1665;-68
2022/10/04 03:32:40;;;;;;;;;;;;;;;16.31;78.86;101106.34;5073161;28;1897;-68
2022/10/04 03:35:14;;;;;;;;;;;;;;;16.31;78.67;101104.41;5069526;28;1799;-70
2022/10/04 03:37:40;;;;;;;;;;;;;;;16.31;78.57;101103.59;5070337;28;1972;-69
2022/10/04 03:40:08;;;;;;;;;;;;;;;16.31;78.71;101106.34;5072567;28;1628;-69
2022/10/04 03:42:35;;;;;;;;;;;;;;;16.31;78.97;101109.13;5071754;28;2050;-69
2022/10/04 03:45:01;;;;;;;;;;;;;;;16.30;78.54;101105.53;5072019;28;2097;-70
2022/10/04 03:47:31;;;;;;;;;;;;;;;16.32;78.37;101119.03;5072599;28;1858;-69
2022/10/04 03:49:59;;;;;;;;;;;;;;;16.31;78.49;101112.69;5068034;28;1830;-69
2022/10/04 03:52:28;;;;;;;;;;;;;;;16.31;79.13;101115.47;5072782;28;1963;-69
2022/10/04 03:54:56;;;;;;;;;;;;;;;16.30;78.95;101111.06;5070571;28;1828;-68
2022/10/04 03:57:22;;;;;;;;;;;;;;;16.31;79.02;101114.63;5071269;28;1592;-68
2022/10/04 03:59:47;;;;;;;;;;;;;;;16.30;79.16;101107.47;5071163;28;1748;-68
2022/10/04 04:02:12;;;;;;;;;;;;;;;16.30;78.53;101113.00;5071989;28;1609;-69
2022/10/04 04:04:40;;;;;;;;;;;;;;;16.28;78.94;101108.59;5070942;28;1740;-67
2022/10/04 04:07:11;;;;;;;;;;;;;;;16.29;79.21;101109.41;5068602;28;2063;-69
2022/10/04 04:09:39;;;;;;;;;;;;;;;16.28;79.09;101108.59;5071903;28;1610;-69
2022/10/04 04:12:08;;;;;;;;;;;;;;;16.28;78.86;101102.25;5071654;28;1968;-68
2022/10/04 04:14:34;;;;;;;;;;;;;;;16.28;79.08;101102.25;5076346;28;1529;-68
2022/10/04 04:17:16;;;;;;;;;;;;;;;16.27;79.04;101097.84;5075270;28;1591;-68
2022/10/04 04:19:42;;;;;;;;;;;;;;;16.27;79.13;101095.91;5075974;28;1985;-69
2022/10/04 04:22:13;;;;;;;;;;;;;;;16.26;78.93;101097.03;5076249;28;1519;-69
2022/10/04 04:24:39;;;;;;;;;;;;;;;16.27;78.57;101095.91;5072285;28;1567;-69
2022/10/04 04:27:05;;;;;;;;;;;;;;;16.28;79.18;101096.72;5076399;28;1541;-69
2022/10/04 04:29:30;;;;;;;;;;;;;;;16.29;79.25;101092.84;5076761;28;979;-69
2022/10/04 04:31:59;;;;;;;;;;;;;;;16.28;79.46;101083.72;5069964;28;1894;-69
2022/10/04 04:34:32;;;;;;;;;;;;;;;16.31;79.19;101087.00;5073947;28;1849;-68
2022/10/04 04:36:59;;;;;;;;;;;;;;;16.33;79.28;101082.84;5068362;28;1579;-69
2022/10/04 04:39:39;;;;;;;;;;;;;;;16.37;79.46;101088.56;5074422;28;1710;-68
2022/10/04 04:42:10;;;;;;;;;;;;;;;16.38;79.00;101088.25;5070119;28;1551;-69
2022/10/04 04:44:50;;;;;;;;;;;;;;;16.36;79.58;101084.97;5075887;28;1640;-69
2022/10/04 04:47:25;;;;;;;;;;;;;;;16.34;79.10;101086.38;5076110;28;1679;-69
2022/10/04 04:49:50;;;;;;;;;;;;;;;16.32;79.54;101080.38;5075551;28;1902;-69
2022/10/04 04:52:20;;;;;;;;;;;;;;;16.33;79.18;101084.78;5070926;28;2060;-68
2022/10/04 04:54:46;;;;;;;;;;;;;;;16.39;78.94;101080.78;5075487;28;1946;-69
2022/10/04 04:57:14;;;;;;;;;;;;;;;16.45;78.77;101074.03;5073881;28;2143;-70
2022/10/04 04:59:42;;;;;;;;;;;;;;;16.47;78.54;101067.06;5064896;28;1850;-69
2022/10/04 05:02:26;;;;;;;;;;;;;;;16.49;78.62;101067.59;5068417;28;2030;-69
2022/10/04 05:05:09;;;;;;;;;;;;;;;16.48;77.99;101073.44;5073095;28;1809;-69
2022/10/04 05:07:34;;;;;;;;;;;;;;;16.44;78.10;101078.72;5071904;28;2235;-69
2022/10/04 05:09:59;;;;;;;;;;;;;;;16.41;78.06;101078.53;5069976;28;2799;-68
2022/10/04 05:12:24;;;;;;;;;;;;;;;16.38;78.47;101070.84;5075129;28;1964;-69
2022/10/04 05:14:51;;;;;;;;;;;;;;;16.35;78.67;101071.44;5074799;28;1787;-69
2022/10/04 05:17:18;;;;;;;;;;;;;;;16.31;78.52;101076.78;5073629;28;1987;-69
2022/10/04 05:19:45;;;;;;;;;;;;;;;16.30;78.54;101075.16;5071382;28;1790;-69
2022/10/04 05:22:12;;;;;;;;;;;;;;;16.27;78.63;101073.81;5070656;28;1955;-69
2022/10/04 05:24:39;;;;;;;;;;;;;;;16.25;78.20;101078.81;5071485;28;2417;-70
2022/10/04 05:27:07;;;;;;;;;;;;;;;16.22;78.68;101076.66;5070928;28;1821;-68
2022/10/04 05:29:37;;;;;;;;;;;;;;;16.22;78.56;101082.19;5074734;28;1736;-69
2022/10/04 05:32:12;;;;;;;;;;;;;;;16.22;78.17;101086.91;5074997;28;1953;-69
2022/10/04 05:34:38;;;;;;;;;;;;;;;16.19;78.14;101080.03;5074640;28;1874;-69
2022/10/04 05:37:18;;;;;;;;;;;;;;;16.20;78.21;101078.09;5072593;28;1832;-69
2022/10/04 05:39:48;;;;;;;;;;;;;;;16.17;78.03;101081.44;5074506;28;1716;-69
2022/10/04 05:42:25;;;;;;;;;;;;;;;16.15;78.05;101084.53;5074440;28;1892;-69
2022/10/04 05:44:51;;;;;;;;;;;;;;;16.15;78.05;101090.06;5055728;28;1018;-69
2022/10/04 05:47:22;;;;;;;;;;;;;;;16.15;77.99;101100.28;5073969;28;1947;-69
2022/10/04 05:49:48;;;;;;;;;;;;;;;16.13;78.20;101100.59;5075260;28;1591;-69
2022/10/04 05:52:15;;;;;;;;;;;;;;;16.12;78.10;101101.72;5075108;28;1959;-69
2022/10/04 05:54:41;;;;;;;;;;;;;;;16.12;78.00;101104.47;5075231;28;848;-69
2022/10/04 05:57:18;;;;;;;;;;;;;;;16.12;78.20;101103.66;5073942;28;1264;-69
2022/10/04 05:59:54;;;;;;;;;;;;;;;16.09;78.09;101096.78;5075119;28;812;-69
2022/10/04 06:02:30;;;;;;;;;;;;;;;16.10;78.07;101100.34;5075151;28;855;-69
2022/10/04 06:05:01;;;;;;;;;;;;;;;16.09;77.76;101093.19;5074917;28;859;-69
2022/10/04 06:07:36;;;;;;;;;;;;;;;16.08;77.92;101102.59;5073324;28;1226;-69
2022/10/04 06:10:23;;;;;;;;;;;;;;;16.07;77.92;101106.50;5074794;28;1055;-69
2022/10/04 06:13:08;;;;;;;;;;;;;;;16.06;77.61;101094.63;5074752;28;1974;-69
2022/10/04 06:15:57;;;;;;;;;;;;;;;16.06;77.68;101111.22;5033347;28;1104;-69
2022/10/04 06:18:38;;;;;;;;;;;;;;;16.06;77.76;101116.72;5064059;28;1452;-69
2022/10/04 06:21:16;;;;;;;;;;;;;;;16.05;77.59;101109.56;5074624;28;841;-69
2022/10/04 06:23:46;;;;;;;;;;;;;;;16.05;77.75;101114.25;5074706;28;948;-69
2022/10/04 06:26:13;;;;;;;;;;;;;;;16.04;77.90;101118.16;5074242;28;1007;-69
2022/10/04 06:28:48;;;;;;;;;;;;;;;16.04;77.67;101123.66;5074320;28;1195;-69
2022/10/04 06:31:31;;;;;;;;;;;;;;;16.03;77.49;101122.03;5074279;28;1893;-69
2022/10/04 06:33:59;;;;;;;;;;;;;;;16.03;77.45;101127.53;5074267;28;975;-69
2022/10/04 06:36:30;;;;;;;;;;;;;;;16.02;77.39;101135.00;5073305;28;857;-69
2022/10/04 06:39:01;;;;;;;;;;;;;;;16.02;77.59;101131.44;5073094;28;1422;-69
2022/10/04 06:41:42;;;;;;;;;;;;;;;16.02;77.42;101135.00;5074165;28;1090;-69
2022/10/04 06:44:13;;;;;;;;;;;;;;;16.02;77.44;101126.72;5074115;28;812;-69
2022/10/04 06:46:48;;;;;;;;;;;;;;;16.02;77.30;101125.91;5073894;28;995;-69
2022/10/04 06:49:32;;;;;;;;;;;;;;;16.02;77.22;101132.25;5073905;28;1190;-69
2022/10/04 06:52:12;;;;;;;;;;;;;;;16.01;77.38;101127.84;5073828;28;1961;-69
2022/10/04 06:54:46;;;;;;;;;;;;;;;16.00;77.31;101123.44;5073939;28;1031;-69
2022/10/04 06:57:14;;;;;;;;;;;;;;;16.00;77.37;101136.44;5073550;28;1315;-69
2022/10/04 06:59:39;;;;;;;;;;;;;;;16.00;77.17;101128.97;5073813;28;1050;-69
2022/10/04 07:02:07;;;;;;;;;;;;;;;16.00;76.94;101140.00;5073713;28;1047;-69
2022/10/04 07:04:35;;;;;;;;;;;;;;;15.99;76.81;101132.84;5073726;28;964;-69
2022/10/04 07:07:34;;;;;;;;;;;;;;;15.99;77.29;101121.78;5073463;28;1279;-69
2022/10/04 07:10:08;;;;;;;;;;;;;;;16.00;77.30;101123.44;5073703;28;888;-69
2022/10/04 07:12:37;;;;;;;;;;;;;;;15.99;77.11;101121.78;5073526;28;1898;-69
2022/10/04 07:15:07;;;;;;;;;;;;;;;16.00;77.34;101117.09;5073537;28;940;-69
2022/10/04 07:17:36;;;;;;;;;;;;;;;15.99;77.06;101105.22;5071888;28;1312;-69
2022/10/04 07:20:03;;;;;;;;;;;;;;;15.99;76.90;101098.91;5073909;28;972;-69
2022/10/04 07:22:44;;;;;;;;;;;;;;;15.98;77.07;101109.13;5073517;28;940;-69
2022/10/04 07:25:30;;;;;;;;;;;;;;;15.97;76.88;101101.97;5073434;28;911;-69
2022/10/04 07:30:58;;;;;;;;;;;;;;;15.97;76.74;101096.44;5073388;28;1968;-69
2022/10/04 07:33:26;;;;;;;;;;;;;;;15.98;76.68;101094.50;5073293;28;960;-69
2022/10/04 07:35:54;;;;;;;;;;;;;;;15.98;76.76;101094.50;5073107;28;817;-69
2022/10/04 07:38:28;;;;;;;;;;;;;;;15.97;77.05;101101.97;5073150;28;1216;-69
2022/10/04 07:41:02;;;;;;;;;;;;;;;15.98;76.70;101100.03;5073391;28;805;-69
2022/10/04 07:43:29;;;;;;;;;;;;;;;15.98;76.90;101103.63;5073241;28;828;-69
2022/10/04 07:46:11;;;;;;;;;;;;;;;15.97;76.84;101101.97;5073021;28;912;-69
2022/10/04 07:48:39;;;;;;;;;;;;;;;15.97;76.94;101101.16;5073511;28;1273;-69
2022/10/04 07:51:12;;;;;;;;;;;;;;;15.97;76.86;101101.97;5073015;28;1968;-69
2022/10/04 07:53:37;;;;;;;;;;;;;;;15.98;76.87;101094.50;5073087;28;1192;-69
2022/10/04 07:56:16;;;;;;;;;;;;;;;15.97;76.68;101104.72;5071474;28;1254;-69
2022/10/04 07:58:50;;;;;;;;;;;;;;;15.98;76.40;101111.06;5073064;28;1280;-69
2022/10/04 08:01:20;;;;;;;;;;;;;;;15.96;76.63;101105.84;5073026;28;999;-69
2022/10/04 08:04:00;;;;;;;;;;;;;;;15.98;76.55;101100.03;5073144;28;789;-69
2022/10/04 08:06:58;;;;;;;;;;;;;;;15.98;76.85;101102.78;5072715;28;1062;-69
2022/10/04 08:09:32;;;;;;;;;;;;;;;15.98;76.47;101097.28;5028206;28;1251;-69
2022/10/04 08:12:04;;;;;;;;;;;;;;;15.97;76.27;101103.91;5072908;28;1953;-69
2022/10/04 08:14:38;;;;;;;;;;;;;;;15.98;76.56;101108.31;5073012;28;841;-69
2022/10/04 08:17:22;;;;;;;;;;;;;;;15.97;76.44;101099.22;5071261;28;1289;-69
2022/10/04 08:20:06;;;;;;;;;;;;;;;15.96;76.40;101100.34;5072869;28;1007;-69
2022/10/04 08:22:51;;;;;;;;;;;;;;;15.97;76.58;101096.44;5072833;28;1016;-69
2022/10/04 08:25:27;;;;;;;;;;;;;;;15.98;76.59;101097.28;5072782;28;805;-69
2022/10/04 08:30:47;;;;;;;;;;;;;;;15.98;76.60;101095.34;5072808;28;1953;-69
2022/10/04 08:33:35;;;;;;;;;;;;;;;15.98;76.28;101092.56;5072808;28;833;-69
2022/10/04 08:36:19;;;;;;;;;;;;;;;16.00;76.39;101090.31;5072539;28;1231;-69
2022/10/04 08:38:55;;;;;;;;;;;;;;;15.98;76.37;101084.28;5072681;28;1304;-69
2022/10/04 08:41:32;;;;;;;;;;;;;;;15.99;76.40;101083.13;5072737;28;817;-69
2022/10/04 08:44:22;;;;;;;;;;;;;;;15.99;76.22;101085.91;5072602;28;789;-68
2022/10/04 08:46:58;;;;;;;;;;;;;;;15.99;76.16;101083.13;5072522;28;907;-69
2022/10/04 08:49:41;;;;;;;;;;;;;;;15.99;76.16;101085.91;5072564;28;952;-69
2022/10/04 08:52:31;;;;;;;;;;;;;;;16.00;75.54;101097.75;5072348;28;1968;-69
2022/10/04 08:55:15;;;;;;;;;;;;;;;15.99;76.08;101093.38;5072646;28;1014;-69
2022/10/04 08:57:43;;;;;;;;;;;;;;;15.99;76.19;101096.16;5072278;28;1205;-69
2022/10/04 09:00:27;;;;;;;;;;;;;;;15.99;76.04;101102.47;5076060;28;825;-69
2022/10/04 09:03:19;;;;;;;;;;;;;;;15.98;76.31;101098.09;5075055;28;1239;-68
2022/10/04 09:05:56;;;;;;;;;;;;;;;15.99;76.04;101091.41;5075925;28;845;-69
2022/10/04 09:08:30;;;;;;;;;;;;;;;16.00;76.09;101086.72;5075961;28;1267;-69
2022/10/04 09:11:22;;;;;;;;;;;;;;;15.98;76.16;101089.00;5075846;28;1965;-69
2022/10/04 09:14:00;;;;;;;;;;;;;;;15.99;76.21;101099.72;5075987;28;928;-69
2022/10/04 09:16:37;;;;;;;;;;;;;;;15.99;76.20;101093.38;5075584;28;1181;-69
2022/10/04 09:19:15;;;;;;;;;;;;;;;15.99;76.32;101094.19;5075802;28;1177;-69
2022/10/04 09:22:03;;;;;;;;;;;;;;;15.99;76.12;101083.13;5075814;28;801;-69
2022/10/04 09:24:43;;;;;;;;;;;;;;;16.00;75.85;101081.19;5064527;28;1195;-69
2022/10/04 09:27:27;;;;;;;;;;;;;;;15.99;75.96;101076.81;5075473;28;1204;-69
2022/10/04 09:30:02;;;;;;;;;;;;;;;15.99;75.94;101079.59;5075539;28;979;-69
2022/10/04 09:32:39;;;;;;;;;;;;;;;15.99;75.96;101083.13;5075699;28;1902;-69
2022/10/04 09:35:25;;;;;;;;;;;;;;;15.98;75.93;101089.81;5075527;28;881;-69
2022/10/04 09:38:01;;;;;;;;;;;;;;;15.99;76.14;101085.91;5075237;28;1193;-69
2022/10/04 09:40:39;;;;;;;;;;;;;;;15.99;76.11;101077.63;5075402;28;840;-69
2022/10/04 09:43:04;;;;;;;;;;;;;;;15.99;76.15;101077.63;5075473;28;790;-69
2022/10/04 09:45:41;;;;;;;;;;;;;;;15.99;75.89;101080.38;5075269;28;785;-69
2022/10/04 09:48:07;;;;;;;;;;;;;;;15.99;75.42;101079.59;5075058;28;1286;-69
2022/10/04 09:50:34;;;;;;;;;;;;;;;15.99;75.98;101082.34;5075062;28;855;-69
2022/10/04 09:53:18;;;;;;;;;;;;;;;15.99;75.87;101072.09;5075263;28;1897;-69
2022/10/04 09:55:54;;;;;;;;;;;;;;;15.99;76.03;101077.63;5074942;28;825;-69
2022/10/04 09:58:44;;;;;;;;;;;;;;;15.99;76.11;101060.25;5075054;28;1209;-69
2022/10/04 10:01:28;;;;;;;;;;;;;;;16.00;75.90;101067.41;5075025;28;817;-69
2022/10/04 10:03:56;;;;;;;;;;;;;;;15.99;75.96;101061.03;5075101;28;852;-69
2022/10/04 10:06:39;;;;;;;;;;;;;;;15.99;75.77;101054.72;5074670;28;868;-69
2022/10/04 10:09:18;;;;;;;;;;;;;;;15.99;75.95;101063.03;5074895;28;1204;-69
2022/10/04 10:15:02;;;;;;;;;;;;;;;16.00;75.69;101053.59;5074813;28;652;-69
2022/10/04 10:17:38;;;;;;;;;;;;;;;15.99;75.94;101049.22;5074364;28;1208;-69
2022/10/04 10:20:10;;;;;;;;;;;;;;;15.99;75.71;101049.22;5075003;28;809;-69
2022/10/04 10:22:35;;;;;;;;;;;;;;;15.99;75.97;101047.25;5074596;28;1003;-69
2022/10/04 10:25:00;;;;;;;;;;;;;;;16.00;75.79;101045.31;5074551;28;972;-69
2022/10/04 10:27:46;;;;;;;;;;;;;;;16.00;75.62;101050.81;5074147;28;1282;-69
2022/10/04 10:30:19;;;;;;;;;;;;;;;16.00;75.68;101053.59;5074318;28;789;-69
2022/10/04 10:33:07;;;;;;;;;;;;;;;16.01;75.93;101049.72;5074318;28;1964;-69
2022/10/04 10:35:32;;;;;;;;;;;;;;;16.00;75.82;101048.88;5074341;28;954;-69
2022/10/04 10:38:23;;;;;;;;;;;;;;;16.00;75.70;101048.06;5074144;28;1318;-69
2022/10/04 10:41:03;;;;;;;;;;;;;;;16.00;75.55;101042.53;5073041;28;1358;-69
2022/10/04 10:43:35;;;;;;;;;;;;;;;16.00;75.43;101040.59;5074140;28;813;-69
2022/10/04 10:46:03;;;;;;;;;;;;;;;16.00;75.62;101029.56;5073901;28;797;-69
2022/10/04 10:48:47;;;;;;;;;;;;;;;16.00;75.54;101031.50;5073965;28;1272;-69
2022/10/04 10:51:19;;;;;;;;;;;;;;;16.01;75.71;101030.38;5073796;28;1901;-69
2022/10/04 10:54:04;;;;;;;;;;;;;;;16.01;75.56;101028.44;5073912;28;828;-69
2022/10/04 10:56:33;;;;;;;;;;;;;;;16.01;75.67;101017.38;5073677;28;856;-69
2022/10/04 10:59:04;;;;;;;;;;;;;;;16.01;75.54;101009.09;5073726;28;1256;-69
2022/10/04 11:01:48;;;;;;;;;;;;;;;16.01;75.41;101011.88;5073704;28;842;-69
2022/10/04 11:04:34;;;;;;;;;;;;;;;16.01;75.46;101008.28;5073766;28;928;-69
2022/10/04 11:06:59;;;;;;;;;;;;;;;16.01;75.58;101006.34;5073489;28;1334;-69
2022/10/04 11:09:43;;;;;;;;;;;;;;;16.01;75.62;101000.00;5073640;28;976;-69
2022/10/04 11:12:26;;;;;;;;;;;;;;;16.00;75.48;100999.19;5073478;28;1961;-69
2022/10/04 11:15:15;;;;;;;;;;;;;;;16.00;75.58;100985.38;5073790;28;793;-69
2022/10/04 11:18:18;;;;;;;;;;;;;;;16.00;75.40;100988.13;5073229;28;1299;-69
2022/10/04 11:21:02;;;;;;;;;;;;;;;16.02;75.51;100994.19;4991888;28;1139;-69
2022/10/04 11:23:37;;;;;;;;;;;;;;;16.02;75.26;100990.59;4991930;28;799;-69
2022/10/04 11:26:21;;;;;;;;;;;;;;;16.01;75.40;100992.53;5044881;28;1036;-69
2022/10/04 11:29:12;;;;;;;;;;;;;;;16.02;75.33;100983.13;5073285;28;1201;-69
2022/10/04 11:31:53;;;;;;;;;;;;;;;16.03;75.25;100979.25;5069488;28;1936;-69
2022/10/04 11:34:28;;;;;;;;;;;;;;;16.03;75.73;100975.66;5073493;28;872;-69
2022/10/04 11:37:12;;;;;;;;;;;;;;;16.03;75.50;100972.91;5073047;28;836;-69
2022/10/04 11:39:53;;;;;;;;;;;;;;;16.03;75.25;100970.97;5073312;28;970;-69
2022/10/04 11:42:34;;;;;;;;;;;;;;;16.04;75.49;100969.84;5073396;28;1014;-68
2022/10/04 11:45:12;;;;;;;;;;;;;;;16.04;75.18;100956.03;5073287;28;1011;-69
2022/10/04 11:47:44;;;;;;;;;;;;;;;16.04;75.50;100952.47;5072921;28;1220;-69
2022/10/04 11:50:34;;;;;;;;;;;;;;;16.05;75.22;100963.22;5073255;28;872;-69
2022/10/04 11:53:20;;;;;;;;;;;;;;;16.06;74.90;100966.78;5073224;28;1965;-69
2022/10/04 11:56:02;;;;;;;;;;;;;;;16.06;75.19;100972.31;5072846;28;879;-69
2022/10/04 11:58:40;;;;;;;;;;;;;;;16.07;75.33;100972.00;5073134;28;1327;-69
2022/10/04 12:01:18;;;;;;;;;;;;;;;16.07;75.56;100958.19;5073134;28;821;-69
2022/10/04 12:04:02;;;;;;;;;;;;;;;16.08;75.21;100959.00;5073038;28;1131;-69
2022/10/04 12:06:56;;;;;;;;;;;;;;;16.08;75.11;100959.81;5072971;28;786;-69
2022/10/04 12:09:32;;;;;;;;;;;;;;;16.10;75.12;100956.75;5073113;28;853;-69
2022/10/04 12:14:41;;;;;;;;;;;;;;;16.11;75.19;100944.59;5072999;28;663;-69
2022/10/04 12:17:26;;;;;;;;;;;;;;;16.12;75.35;100947.03;5072627;28;1189;-69
2022/10/04 12:19:57;;;;;;;;;;;;;;;16.12;74.82;100941.53;5072942;28;920;-69
2022/10/04 12:22:22;;;;;;;;;;;;;;;16.12;75.18;100936.00;5072888;28;920;-69
2022/10/04 12:25:08;;;;;;;;;;;;;;;16.12;75.01;100926.91;5072811;28;980;-69
2022/10/04 12:27:45;;;;;;;;;;;;;;;16.13;75.20;100926.59;5072453;28;1223;-69
2022/10/04 12:30:32;;;;;;;;;;;;;;;16.14;75.14;100924.66;5072869;28;951;-69
2022/10/04 12:33:33;;;;;;;;;;;;;;;16.15;75.40;100909.72;5072662;28;1886;-69
2022/10/04 12:36:17;;;;;;;;;;;;;;;16.16;74.87;100905.84;4994770;28;1099;-69
2022/10/04 12:38:51;;;;;;;;;;;;;;;16.19;74.99;100911.53;5069572;28;1312;-69
2022/10/04 12:41:29;;;;;;;;;;;;;;;16.20;74.81;100907.66;5076479;28;991;-69
2022/10/04 12:44:13;;;;;;;;;;;;;;;16.22;74.58;100907.34;5076427;28;991;-69
2022/10/04 12:46:50;;;;;;;;;;;;;;;16.25;74.96;100899.25;5076175;28;1010;-69
2022/10/04 12:49:34;;;;;;;;;;;;;;;16.29;74.14;100893.94;5076283;28;1304;-69
2022/10/04 12:51:59;;;;;;;;;;;;;;;16.31;74.78;100883.41;5076056;28;1955;-69
2022/10/04 12:54:32;;;;;;;;;;;;;;;16.33;74.69;100889.44;5076235;28;936;-69
2022/10/04 12:57:15;;;;;;;;;;;;;;;16.34;74.74;100884.72;5075866;28;1287;-69
2022/10/04 12:59:46;;;;;;;;;;;;;;;16.36;74.21;100885.22;5076195;28;1046;-69
2022/10/04 13:02:22;;;;;;;;;;;;;;;16.34;74.73;100881.94;5076106;28;860;-69
2022/10/04 13:04:53;;;;;;;;;;;;;;;16.35;74.78;100880.81;5076087;28;1039;-69
2022/10/04 13:07:37;;;;;;;;;;;;;;;16.34;74.59;100885.53;5075776;28;1222;-69
2022/10/04 13:10:06;;;;;;;;;;;;;;;16.34;74.36;100870.91;5076043;28;762;-69
2022/10/04 13:12:54;;;;;;;;;;;;;;;16.34;74.62;100857.09;5075854;28;1955;-69
2022/10/04 13:15:48;;;;;;;;;;;;;;;16.34;74.31;100854.31;5064964;28;1195;-69
2022/10/04 13:18:14;;;;;;;;;;;;;;;16.33;74.28;100859.06;5003877;28;1229;-69
2022/10/04 13:20:51;;;;;;;;;;;;;;;16.33;74.56;100861.00;5075813;28;861;-69
2022/10/04 13:23:35;;;;;;;;;;;;;;;16.33;74.50;100856.28;5075763;28;781;-69
2022/10/04 13:26:00;;;;;;;;;;;;;;;16.33;74.40;100856.28;5075373;28;923;-69
2022/10/04 13:28:45;;;;;;;;;;;;;;;16.32;74.32;100854.66;5075643;28;1266;-69
2022/10/04 13:31:33;;;;;;;;;;;;;;;16.33;74.34;100855.47;5075512;28;1905;-69
2022/10/04 13:33:58;;;;;;;;;;;;;;;16.32;73.93;100853.84;5075626;28;880;-69
2022/10/04 13:36:41;;;;;;;;;;;;;;;16.31;74.78;100847.50;5075267;28;1035;-69
2022/10/04 13:39:32;;;;;;;;;;;;;;;16.32;74.40;100842.78;5075364;28;1188;-69